Time;durP1;ratioP1;P1;durP2;ratioP2;P2;SDS_P1;SDS_P2;PMS_P1;PMS_P2;Temp;Humidity;BMP_temperature;BMP_pressure;BME280_temperature;BME280_humidity;BME280_pressure;Samples;Min_cycle;Max_cycle;Signal;HPM_P1;HPM_P2
2021/01/26 00:01:32;;;;;;;6.82;4.90;;;3.10;99.90;;;;;;5108079;28;20051;-53
2021/01/26 00:03:58;;;;;;;9.20;5.53;;;3.10;99.90;;;;;;5108139;28;20103;-54
2021/01/26 00:06:24;;;;;;;9.40;6.00;;;3.10;99.90;;;;;;5108500;28;20373;-54
2021/01/26 00:08:50;;;;;;;7.05;4.97;;;3.00;99.90;;;;;;5108361;28;20486;-54
2021/01/26 00:11:15;;;;;;;8.05;5.32;;;3.00;99.90;;;;;;5108915;27;20532;-53
2021/01/26 00:13:41;;;;;;;7.07;4.75;;;3.00;99.90;;;;;;5108042;28;20035;-53
2021/01/26 00:16:07;;;;;;;8.10;5.45;;;3.00;99.90;;;;;;5107817;28;20102;-52
2021/01/26 00:18:33;;;;;;;7.97;5.45;;;3.10;99.90;;;;;;5107964;28;20019;-53
2021/01/26 00:20:59;;;;;;;8.77;5.07;;;2.80;99.90;;;;;;5107699;28;20027;-53
2021/01/26 00:23:25;;;;;;;7.55;5.35;;;2.90;99.90;;;;;;5107631;28;20493;-53
2021/01/26 00:25:50;;;;;;;9.27;5.82;;;2.80;99.90;;;;;;5107781;28;20034;-54
2021/01/26 00:28:17;;;;;;;8.40;6.10;;;2.80;99.90;;;;;;5108459;28;20135;-53
2021/01/26 00:30:43;;;;;;;7.85;5.25;;;2.70;99.90;;;;;;5107636;28;20027;-51
2021/01/26 00:33:17;;;;;;;9.77;6.07;;;2.80;99.90;;;;;;5107492;28;20051;-53
2021/01/26 00:35:43;;;;;;;8.80;5.70;;;2.70;99.90;;;;;;5107638;28;20020;-52
2021/01/26 00:38:09;;;;;;;9.77;5.95;;;2.60;99.90;;;;;;5107750;28;20038;-50
2021/01/26 00:40:35;;;;;;;8.23;5.30;;;2.50;99.90;;;;;;5107894;28;20506;-54
2021/01/26 00:43:01;;;;;;;8.68;5.75;;;2.50;99.90;;;;;;5107115;28;20053;-53
2021/01/26 00:45:29;;;;;;;8.95;5.68;;;2.50;99.90;;;;;;5107493;28;20516;-54
2021/01/26 00:47:55;;;;;;;7.85;5.43;;;2.50;99.90;;;;;;5106979;28;20034;-53
2021/01/26 00:50:22;;;;;;;7.63;5.32;;;2.50;99.90;;;;;;5107578;28;20019;-54
2021/01/26 00:52:48;;;;;;;8.18;6.05;;;2.50;99.90;;;;;;5107231;28;20027;-53
2021/01/26 00:55:17;;;;;;;9.93;6.72;;;2.40;99.90;;;;;;5107631;28;20024;-50
2021/01/26 00:57:43;;;;;;;11.30;6.57;;;2.30;99.90;;;;;;5107216;28;20532;-53
2021/01/26 01:00:22;;;;;;;10.25;5.80;;;2.30;99.90;;;;;;5107442;28;20023;-51
2021/01/26 01:02:48;;;;;;;9.88;6.35;;;2.20;99.90;;;;;;5107280;28;20382;-52
2021/01/26 01:05:14;;;;;;;8.25;5.40;;;2.20;99.90;;;;;;5107633;28;20049;-54
2021/01/26 01:07:40;;;;;;;8.27;5.22;;;2.30;99.90;;;;;;5107228;28;20031;-51
2021/01/26 01:10:08;;;;;;;9.30;4.72;;;2.30;99.90;;;;;;5106807;28;20039;-53
2021/01/26 01:12:34;;;;;;;7.05;4.97;;;2.30;99.90;;;;;;5107080;28;20035;-52
2021/01/26 01:14:59;;;;;;;8.48;5.13;;;2.40;99.90;;;;;;5107082;28;20425;-53
2021/01/26 01:17:25;;;;;;;9.80;5.25;;;2.20;99.90;;;;;;5107437;28;20020;-50
2021/01/26 01:19:51;;;;;;;7.47;4.85;;;2.10;99.90;;;;;;5106671;28;20058;-50
2021/01/26 01:22:17;;;;;;;9.77;5.55;;;2.20;99.90;;;;;;5107785;28;20323;-52
2021/01/26 01:24:43;;;;;;;11.38;6.00;;;2.30;99.90;;;;;;5107061;28;20523;-50
2021/01/26 01:27:09;;;;;;;6.80;4.55;;;2.20;99.90;;;;;;5106751;28;20023;-53
2021/01/26 01:29:34;;;;;;;9.60;5.80;;;2.30;99.90;;;;;;5106801;28;20031;-51
2021/01/26 01:32:01;;;;;;;8.13;5.38;;;2.20;99.90;;;;;;5106774;28;20027;-53
2021/01/26 01:34:28;;;;;;;9.50;5.57;;;2.30;99.90;;;;;;5106501;28;20314;-51
2021/01/26 01:36:53;;;;;;;9.93;5.43;;;2.20;99.90;;;;;;5106309;28;20028;-52
2021/01/26 01:39:19;;;;;;;7.57;4.72;;;2.30;99.90;;;;;;5107597;28;20020;-53
2021/01/26 01:41:45;;;;;;;7.25;4.57;;;2.40;99.90;;;;;;5106665;28;20485;-53
2021/01/26 01:44:11;;;;;;;7.05;4.45;;;2.40;99.90;;;;;;5106317;28;20532;-51
2021/01/26 01:46:46;;;;;;;8.73;5.05;;;2.40;99.90;;;;;;5106834;28;20031;-53
2021/01/26 01:49:17;;;;;;;10.95;6.32;;;2.20;99.90;;;;;;5106152;28;20028;-53
2021/01/26 01:51:44;;;;;;;8.80;5.70;;;2.10;99.90;;;;;;5105792;28;20516;-53
2021/01/26 01:54:20;;;;;;;9.70;5.85;;;2.00;99.90;;;;;;5106399;28;20440;-52
2021/01/26 01:57:08;;;;;;;7.82;5.68;;;2.10;99.90;;;;;;5106563;28;20393;-54
2021/01/26 01:59:41;;;;;;;8.27;5.60;;;2.10;99.90;;;;;;5105646;28;20497;-52
2021/01/26 02:02:09;;;;;;;8.57;5.53;;;2.00;99.90;;;;;;5105702;28;20043;-54
2021/01/26 02:04:37;;;;;;;8.25;5.00;;;2.10;99.90;;;;;;5106343;28;20422;-53
2021/01/26 02:07:04;;;;;;;7.68;4.85;;;2.10;99.90;;;;;;5105656;28;20024;-53
2021/01/26 02:09:36;;;;;;;8.27;5.32;;;2.30;99.90;;;;;;5106176;28;20032;-51
2021/01/26 02:12:02;;;;;;;8.57;5.65;;;2.20;99.90;;;;;;5105220;28;20088;-52
2021/01/26 02:14:32;;;;;;;7.60;4.82;;;2.20;99.90;;;;;;5106024;28;20016;-51
2021/01/26 02:17:20;;;;;;;8.57;5.20;;;2.30;99.90;;;;;;5094627;28;20024;-52
2021/01/26 02:19:45;;;;;;;6.00;3.95;;;2.20;99.90;;;;;;5086120;28;20016;-51
2021/01/26 02:23:04;;;;;;;6.18;4.10;;;2.30;99.90;;;;;;5084149;28;20157;-53
2021/01/26 02:26:13;;;;;;;6.63;4.30;;;2.30;99.90;;;;;;5050872;28;20032;-51
2021/01/26 02:28:39;;;;;;;7.63;3.75;;;2.10;99.90;;;;;;5055859;28;20040;-50
2021/01/26 02:31:46;;;;;;;7.25;4.40;;;2.10;99.90;;;;;;5084828;28;20524;-54
2021/01/26 02:34:29;;;;;;;6.28;3.83;;;2.10;99.90;;;;;;5085265;28;20039;-50
2021/01/26 02:37:14;;;;;;;6.73;4.13;;;2.30;99.90;;;;;;5084928;28;20462;-50
2021/01/26 02:40:06;;;;;;;;;;;2.20;99.90;;;;;;5085701;28;20805;-52
2021/01/26 02:42:50;;;;;;;6.72;3.95;;;2.30;99.90;;;;;;5068793;28;20337;-51
2021/01/26 02:45:31;;;;;;;6.53;4.15;;;2.20;99.90;;;;;;5085152;28;20020;-52
2021/01/26 02:48:24;;;;;;;5.90;3.83;;;2.10;99.90;;;;;;5084617;28;20024;-52
2021/01/26 02:51:05;;;;;;;7.03;4.40;;;2.20;99.90;;;;;;5084794;28;20051;-52
2021/01/26 02:53:58;;;;;;;5.85;3.67;;;2.20;99.90;;;;;;5083399;28;20160;-53
2021/01/26 02:56:43;;;;;;;6.28;4.00;;;2.10;99.90;;;;;;5084830;28;20044;-52
2021/01/26 02:59:21;;;;;;;6.47;3.78;;;2.10;99.90;;;;;;5084782;28;20048;-54
2021/01/26 03:01:56;;;;;;;5.47;3.97;;;2.20;99.90;;;;;;5084215;28;20498;-54
2021/01/26 03:04:30;;;;;;;5.63;3.58;;;2.10;99.90;;;;;;5084888;28;20089;-51
2021/01/26 03:07:00;;;;;;;7.55;4.75;;;2.00;99.90;;;;;;5084609;28;20028;-54
2021/01/26 03:09:31;;;;;;;5.35;4.03;;;1.90;99.90;;;;;;5084919;28;20092;-51
2021/01/26 03:12:14;;;;;;;5.90;4.43;;;2.00;99.90;;;;;;5084350;28;20417;-51
2021/01/26 03:14:41;;;;;;;7.68;4.68;;;1.90;99.90;;;;;;5084880;28;20020;-53
2021/01/26 03:17:28;;;;;;;5.85;3.70;;;1.90;99.90;;;;;;5084597;28;20032;-53
2021/01/26 03:19:58;;;;;;;7.60;4.45;;;2.00;99.90;;;;;;5084406;28;20036;-53
2021/01/26 03:22:27;;;;;;;7.82;4.93;;;2.10;99.90;;;;;;5084588;28;20028;-51
2021/01/26 03:24:56;;;;;;;7.22;4.85;;;1.90;99.90;;;;;;5084139;28;20028;-53
2021/01/26 03:27:30;;;;;;;7.50;4.70;;;2.00;99.90;;;;;;5084714;28;20032;-54
2021/01/26 03:29:58;;;;;;;7.95;4.70;;;2.00;99.90;;;;;;5084467;28;20047;-54
2021/01/26 03:32:32;;;;;;;8.00;4.43;;;2.10;99.90;;;;;;5084204;28;20262;-52
2021/01/26 03:34:58;;;;;;;10.45;5.60;;;2.10;99.90;;;;;;5092509;28;20141;-53
2021/01/26 03:37:25;;;;;;;12.80;6.28;;;2.10;99.90;;;;;;5109195;28;20023;-53
2021/01/26 03:39:52;;;;;;;11.80;5.40;;;2.10;99.90;;;;;;5109052;28;20106;-53
2021/01/26 03:42:19;;;;;;;10.45;5.53;;;2.10;99.90;;;;;;5108957;28;20077;-53
2021/01/26 03:44:47;;;;;;;10.73;5.47;;;2.20;99.90;;;;;;5109366;28;20024;-54
2021/01/26 03:47:20;;;;;;;8.05;5.10;;;2.20;99.90;;;;;;5109468;28;20041;-53
2021/01/26 03:50:27;;;;;;;9.43;5.10;;;2.20;99.90;;;;;;5109173;28;20024;-53
2021/01/26 03:53:20;;;;;;;9.00;5.10;;;2.30;99.90;;;;;;5107651;28;20058;-54
2021/01/26 03:56:05;;;;;;;6.47;4.25;;;2.20;99.90;;;;;;5108676;28;20019;-53
2021/01/26 03:58:50;;;;;;;7.43;4.78;;;2.10;99.90;;;;;;5108810;28;20030;-54
2021/01/26 04:01:18;;;;;;;7.97;5.05;;;2.00;99.90;;;;;;5108532;28;20020;-52
2021/01/26 04:04:10;;;;;;;7.30;4.40;;;2.00;99.90;;;;;;5107355;28;20063;-54
2021/01/26 04:06:52;;;;;;;8.68;5.10;;;2.10;99.90;;;;;;5100815;28;20035;-54
2021/01/26 04:09:24;;;;;;;7.68;4.97;;;2.10;99.90;;;;;;5108224;28;20144;-52
2021/01/26 04:11:54;;;;;;;9.35;5.97;;;2.10;99.90;;;;;;5107892;27;20027;-54
2021/01/26 04:14:30;;;;;;;11.55;5.72;;;2.10;99.90;;;;;;5098828;28;20383;-54
2021/01/26 04:17:13;;;;;;;11.68;5.93;;;2.20;99.90;;;;;;5088343;28;20331;-53
2021/01/26 04:19:55;;;;;;;9.05;5.38;;;2.20;99.90;;;;;;5098059;28;20027;-53
2021/01/26 04:22:22;;;;;;;8.40;5.00;;;2.20;99.90;;;;;;5107984;28;20111;-52
2021/01/26 04:24:48;;;;;;;7.40;4.72;;;2.10;99.90;;;;;;5107569;28;20019;-52
2021/01/26 04:27:19;;;;;;;7.25;4.57;;;2.20;99.90;;;;;;5107804;28;20427;-52
2021/01/26 04:29:45;;;;;;;5.68;3.97;;;2.10;99.90;;;;;;5107393;28;20023;-53
2021/01/26 04:32:10;;;;;;;6.38;4.15;;;2.10;99.90;;;;;;5091986;28;20534;-53
2021/01/26 04:34:36;;;;;;;8.25;4.72;;;2.00;99.90;;;;;;5093684;28;20712;-51
2021/01/26 04:37:02;;;;;;;7.63;4.63;;;2.00;99.90;;;;;;5109131;28;20448;-54
2021/01/26 04:39:28;;;;;;;7.35;4.78;;;2.10;99.90;;;;;;5110226;28;20054;-54
2021/01/26 04:41:59;;;;;;;8.57;4.97;;;2.10;99.90;;;;;;5108291;28;20027;-54
2021/01/26 04:44:59;;;;;;;7.05;4.70;;;2.10;99.90;;;;;;5098794;28;20031;-53
2021/01/26 04:47:44;;;;;;;10.73;5.95;;;2.40;99.90;;;;;;5095016;28;20389;-53
2021/01/26 04:50:48;;;;;;;8.20;4.90;;;2.50;99.90;;;;;;5092306;28;20490;-52
2021/01/26 04:53:28;;;;;;;8.63;5.40;;;2.60;99.90;;;;;;5094979;28;20073;-53
2021/01/26 04:56:02;;;;;;;8.60;5.22;;;2.70;99.90;;;;;;5108909;28;20485;-53
2021/01/26 04:58:46;;;;;;;8.88;5.80;;;2.70;99.90;;;;;;5109354;28;20430;-53
2021/01/26 05:01:14;;;;;;;9.25;5.85;;;2.70;99.90;;;;;;5097531;28;20024;-52
2021/01/26 05:04:01;;;;;;;9.70;5.75;;;2.60;99.90;;;;;;5088669;28;20024;-53
2021/01/26 05:06:42;;;;;;;9.13;6.15;;;2.60;99.90;;;;;;5088290;28;20038;-53
2021/01/26 05:09:18;;;;;;;9.60;6.00;;;2.60;99.90;;;;;;5105571;28;20058;-52
2021/01/26 05:11:46;;;;;;;8.38;5.18;;;2.50;99.90;;;;;;5108347;28;20028;-52
2021/01/26 05:14:28;;;;;;;8.63;5.20;;;2.30;99.90;;;;;;5108765;28;20028;-53
2021/01/26 05:16:58;;;;;;;9.32;5.75;;;2.30;99.90;;;;;;5106440;28;20020;-52
2021/01/26 05:19:48;;;;;;;8.98;5.55;;;2.30;99.90;;;;;;5089118;28;20024;-53
2021/01/26 05:22:33;;;;;;;8.30;5.78;;;2.10;99.90;;;;;;5088306;28;20024;-51
2021/01/26 05:25:09;;;;;;;8.38;5.00;;;2.10;99.90;;;;;;5094962;28;20032;-53
2021/01/26 05:27:38;;;;;;;7.30;4.53;;;2.10;99.90;;;;;;5106847;28;20024;-54
2021/01/26 05:30:08;;;;;;;10.18;5.65;;;2.20;99.90;;;;;;5105572;28;20502;-51
2021/01/26 05:32:35;;;;;;;10.50;5.82;;;2.20;99.90;;;;;;5102222;28;20110;-53
2021/01/26 05:35:00;;;;;;;8.43;5.45;;;2.10;99.90;;;;;;5106280;28;20032;-53
2021/01/26 05:37:27;;;;;;;8.50;5.88;;;2.10;99.90;;;;;;5106731;28;20016;-52
2021/01/26 05:40:07;;;;;;;9.27;5.60;;;2.30;99.90;;;;;;5106476;28;20024;-49
2021/01/26 05:42:34;;;;;;;12.07;6.75;;;2.60;99.90;;;;;;5104911;28;20024;-52
2021/01/26 05:45:06;;;;;;;10.02;5.93;;;2.50;99.90;;;;;;5106195;28;20110;-52
2021/01/26 05:47:37;;;;;;;10.88;6.30;;;2.50;99.90;;;;;;5106518;28;20393;-51
2021/01/26 05:50:05;;;;;;;10.35;6.97;;;2.20;99.90;;;;;;5106238;28;20032;-53
2021/01/26 05:52:37;;;;;;;10.00;6.55;;;2.40;99.90;;;;;;5105637;28;20027;-50
2021/01/26 05:55:16;;;;;;;10.20;6.45;;;2.50;99.90;;;;;;5105353;28;20029;-53
2021/01/26 05:57:43;;;;;;;9.50;5.90;;;2.40;99.90;;;;;;5106004;28;20045;-52
2021/01/26 06:00:14;;;;;;;8.75;5.55;;;2.50;99.90;;;;;;5105984;28;20016;-54
2021/01/26 06:02:39;;;;;;;9.18;6.00;;;2.40;99.90;;;;;;5105835;28;20540;-52
2021/01/26 06:05:14;;;;;;;9.75;6.10;;;2.50;99.90;;;;;;5105875;28;20023;-53
2021/01/26 06:07:39;;;;;;;9.85;5.93;;;2.50;99.90;;;;;;5105825;28;20137;-53
2021/01/26 06:10:20;;;;;;;9.68;5.93;;;2.40;99.90;;;;;;5106042;28;20050;-50
2021/01/26 06:12:54;;;;;;;12.35;6.90;;;2.50;99.90;;;;;;5091105;28;20144;-49
2021/01/26 06:15:23;;;;;;;13.02;7.28;;;2.50;99.90;;;;;;5085770;28;20024;-53
2021/01/26 06:17:49;;;;;;;13.95;8.45;;;2.40;99.90;;;;;;5084810;28;20077;-50
2021/01/26 06:20:23;;;;;;;13.48;9.13;;;2.00;99.90;;;;;;5085746;28;20016;-51
2021/01/26 06:22:51;;;;;;;13.82;8.85;;;1.80;99.90;;;;;;5084975;28;20452;-52
2021/01/26 06:25:31;;;;;;;12.55;8.52;;;2.20;99.90;;;;;;5085678;28;20507;-50
2021/01/26 06:28:09;;;;;;;14.20;8.20;;;2.30;99.90;;;;;;5084332;28;20143;-50
2021/01/26 06:30:43;;;;;;;13.27;8.10;;;2.40;99.90;;;;;;5085042;28;20020;-50
2021/01/26 06:33:28;;;;;;;14.50;8.50;;;2.20;99.90;;;;;;5085907;28;20020;-53
2021/01/26 06:36:16;;;;;;;12.95;8.07;;;2.40;99.90;;;;;;5084972;28;20024;-52
2021/01/26 06:39:03;;;;;;;11.55;7.03;;;2.30;99.90;;;;;;5084757;28;20445;-53
2021/01/26 06:41:56;;;;;;;13.10;7.22;;;2.10;99.90;;;;;;5085212;28;20111;-52
2021/01/26 06:44:31;;;;;;;11.82;7.07;;;2.10;99.90;;;;;;5082872;28;20105;-54
2021/01/26 06:47:02;;;;;;;13.80;7.55;;;2.00;99.90;;;;;;5084460;28;20096;-50
2021/01/26 06:49:46;;;;;;;10.02;5.93;;;1.90;99.90;;;;;;5084152;28;20032;-51
2021/01/26 06:52:29;;;;;;;11.63;6.90;;;1.80;99.90;;;;;;5085053;28;20027;-53
2021/01/26 06:55:11;;;;;;;22.73;12.05;;;1.80;99.90;;;;;;5084698;28;20070;-52
2021/01/26 06:58:18;;;;;;;68.22;29.65;;;1.80;99.90;;;;;;5084676;28;20023;-49
2021/01/26 07:01:12;;;;;;;37.70;17.65;;;1.70;99.90;;;;;;5084474;28;20023;-52
2021/01/26 07:03:53;;;;;;;23.20;12.13;;;1.50;99.90;;;;;;5085420;28;20048;-50
2021/01/26 07:06:31;;;;;;;17.27;10.05;;;1.40;99.90;;;;;;5085682;28;20042;-51
2021/01/26 07:09:21;;;;;;;13.95;8.02;;;1.30;99.90;;;;;;5085381;28;20028;-51
2021/01/26 07:12:08;;;;;;;11.45;6.75;;;1.20;99.90;;;;;;5095177;28;20122;-53
2021/01/26 07:15:02;;;;;;;13.45;6.78;;;1.20;99.90;;;;;;5106627;28;20038;-51
2021/01/26 07:17:53;;;;;;;11.10;6.60;;;1.10;99.90;;;;;;5106361;28;20449;-51
2021/01/26 07:20:43;;;;;;;11.02;6.60;;;1.30;99.90;;;;;;5106706;28;20406;-50
2021/01/26 07:23:32;;;;;;;13.82;7.15;;;1.40;99.90;;;;;;5107156;28;20028;-53
2021/01/26 07:26:38;;;;;;;12.68;7.63;;;1.30;99.90;;;;;;5105204;28;20067;-50
2021/01/26 07:29:37;;;;;;;11.20;6.10;;;1.30;99.90;;;;;;5103057;28;20024;-50
2021/01/26 07:32:15;;;;;;;11.60;6.63;;;1.30;99.90;;;;;;5092171;28;20028;-53
2021/01/26 07:35:06;;;;;;;10.30;5.53;;;1.20;99.90;;;;;;5104139;28;20028;-52
2021/01/26 07:37:43;;;;;;;9.60;6.03;;;1.10;99.90;;;;;;5106578;28;20775;-52
2021/01/26 07:40:17;;;;;;;10.88;6.00;;;1.10;99.90;;;;;;5106091;28;20069;-51
2021/01/26 07:43:07;;;;;;;8.65;5.72;;;1.10;99.90;;;;;;5106009;28;20035;-49
2021/01/26 07:45:38;;;;;;;9.80;5.75;;;1.10;99.90;;;;;;5085785;28;20050;-52
2021/01/26 07:48:15;;;;;;;12.77;6.72;;;1.20;99.90;;;;;;5101187;28;20023;-52
2021/01/26 07:50:52;;;;;;;12.18;6.80;;;1.40;99.90;;;;;;5095076;28;20517;-52
2021/01/26 07:53:39;;;;;;;13.82;7.13;;;1.60;99.90;;;;;;5104251;28;20036;-53
2021/01/26 07:56:19;;;;;;;11.57;6.53;;;1.50;99.90;;;;;;5099272;28;20493;-50
2021/01/26 07:58:47;;;;;;;11.73;6.90;;;1.70;99.90;;;;;;5102650;28;20573;-50
2021/01/26 08:01:15;;;;;;;9.18;6.00;;;1.70;99.90;;;;;;5104273;28;20024;-50
2021/01/26 08:03:42;;;;;;;12.98;6.60;;;1.80;99.90;;;;;;5104956;28;20041;-52
2021/01/26 08:06:36;;;;;;;16.17;8.85;;;1.80;99.90;;;;;;5088946;28;20028;-49
2021/01/26 08:09:13;;;;;;;31.33;14.38;;;1.90;99.90;;;;;;5083861;28;20492;-51
2021/01/26 08:12:00;;;;;;;25.05;12.43;;;2.00;99.90;;;;;;5084360;28;20031;-52
2021/01/26 08:14:36;;;;;;;21.88;11.90;;;2.10;99.90;;;;;;5083436;28;20469;-51
2021/01/26 08:17:04;;;;;;;19.52;10.50;;;2.20;99.90;;;;;;5094961;28;20415;-52
2021/01/26 08:19:35;;;;;;;15.38;9.25;;;2.20;99.90;;;;;;5106405;28;20031;-52
2021/01/26 08:22:30;;;;;;;13.90;8.07;;;2.20;99.90;;;;;;5106892;28;20020;-53
2021/01/26 08:25:08;;;;;;;;;;;2.30;99.90;;;;;;5092242;28;20397;-49
2021/01/26 08:27:36;;;;;;;23.80;10.32;;;2.20;99.90;;;;;;5109833;28;19907;-51
2021/01/26 08:30:07;;;;;;;44.70;15.15;;;2.20;99.90;;;;;;5109225;28;20027;-51
2021/01/26 08:32:33;;;;;;;42.97;17.02;;;2.20;99.90;;;;;;5109484;28;20028;-52
2021/01/26 08:34:58;;;;;;;33.45;14.85;;;2.30;99.90;;;;;;5109068;28;20019;-51
2021/01/26 08:37:47;;;;;;;34.30;14.50;;;2.30;99.90;;;;;;5107973;28;20020;-51
2021/01/26 08:40:18;;;;;;;30.25;13.10;;;2.30;99.90;;;;;;5107483;28;20547;-52
2021/01/26 08:42:49;;;;;;;25.17;12.23;;;2.30;99.90;;;;;;5107241;28;20035;-50
2021/01/26 08:45:39;;;;;;;24.75;11.20;;;2.20;99.90;;;;;;5107983;28;20099;-50
2021/01/26 08:48:25;;;;;;;41.55;16.08;;;2.30;99.90;;;;;;5107842;28;20024;-52
2021/01/26 08:50:52;;;;;;;33.58;13.60;;;2.40;99.90;;;;;;5107298;28;20024;-53
2021/01/26 08:53:27;;;;;;;24.75;10.48;;;2.50;99.90;;;;;;5106998;28;20408;-52
2021/01/26 08:56:04;;;;;;;38.10;14.63;;;2.60;99.90;;;;;;5107153;28;20031;-51
2021/01/26 08:58:38;;;;;;;39.13;14.88;;;2.60;99.90;;;;;;5107240;28;20411;-51
2021/01/26 09:01:09;;;;;;;29.88;12.77;;;2.60;99.90;;;;;;5107408;28;20035;-50
2021/01/26 09:03:37;;;;;;;23.77;10.05;;;2.70;99.90;;;;;;5107222;28;20021;-50
2021/01/26 09:06:08;;;;;;;18.88;9.02;;;2.80;99.90;;;;;;5107424;28;20035;-49
2021/01/26 09:08:42;;;;;;;19.05;9.20;;;2.80;99.90;;;;;;5107429;28;20058;-49
2021/01/26 09:11:18;;;;;;;15.73;8.32;;;2.80;99.90;;;;;;5106537;28;20425;-49
2021/01/26 09:13:47;;;;;;;16.65;8.70;;;2.90;99.90;;;;;;5106643;28;20031;-53
2021/01/26 09:16:24;;;;;;;12.70;7.55;;;2.80;99.90;;;;;;5107535;28;20058;-51
2021/01/26 09:19:12;;;;;;;14.23;8.43;;;2.90;99.90;;;;;;5106693;28;20020;-53
2021/01/26 09:21:38;;;;;;;14.38;8.05;;;2.90;99.90;;;;;;5107336;28;20489;-52
2021/01/26 09:24:05;;;;;;;13.80;7.60;;;3.00;99.90;;;;;;5107090;28;20031;-50
2021/01/26 09:26:31;;;;;;;10.02;6.20;;;3.10;99.90;;;;;;5107207;28;20164;-51
2021/01/26 09:28:57;;;;;;;13.00;6.60;;;3.00;99.90;;;;;;5106320;28;20087;-50
2021/01/26 09:31:28;;;;;;;9.60;6.20;;;3.10;99.90;;;;;;5106874;28;20390;-52
2021/01/26 09:34:06;;;;;;;10.45;6.13;;;3.10;99.90;;;;;;5106753;28;20098;-49
2021/01/26 09:36:34;;;;;;;8.23;5.10;;;3.20;99.90;;;;;;5106819;28;20053;-53
2021/01/26 09:39:10;;;;;;;7.60;5.00;;;3.10;99.90;;;;;;5106393;28;20016;-52
2021/01/26 09:41:37;;;;;;;11.13;5.57;;;3.10;99.90;;;;;;5106388;28;20023;-53
2021/01/26 09:44:09;;;;;;;8.23;5.55;;;3.20;99.90;;;;;;5106137;28;20450;-51
2021/01/26 09:46:45;;;;;;;10.10;5.68;;;3.40;99.90;;;;;;5106723;28;20034;-51
2021/01/26 09:49:27;;;;;;;8.70;5.45;;;3.30;99.90;;;;;;5105652;28;20047;-53
2021/01/26 09:52:11;;;;;;;9.00;5.45;;;3.30;99.90;;;;;;5105279;28;20023;-49
2021/01/26 09:54:39;;;;;;;9.55;5.72;;;3.40;99.90;;;;;;5106553;28;20023;-50
2021/01/26 09:57:10;;;;;;;10.48;5.72;;;3.50;99.90;;;;;;5106272;28;20030;-52
2021/01/26 09:59:37;;;;;;;9.32;5.70;;;3.40;99.90;;;;;;5106341;28;20398;-53
2021/01/26 10:02:12;;;;;;;8.20;5.07;;;3.50;99.90;;;;;;5106662;28;20047;-53
2021/01/26 10:04:40;;;;;;;8.73;4.85;;;3.50;99.90;;;;;;5106513;28;20118;-53
2021/01/26 10:07:10;;;;;;;9.52;5.90;;;3.50;99.90;;;;;;5106072;28;20023;-53
2021/01/26 10:09:42;;;;;;;7.70;4.95;;;3.30;99.90;;;;;;5106406;28;20026;-52
2021/01/26 10:12:37;;;;;;;7.30;4.70;;;3.40;99.90;;;;;;5106444;28;20162;-53
2021/01/26 10:15:26;;;;;;;8.88;5.30;;;3.60;99.90;;;;;;5105874;28;20445;-53
2021/01/26 10:17:54;;;;;;;9.52;4.88;;;3.70;99.90;;;;;;5105829;28;20146;-53
2021/01/26 10:20:24;;;;;;;7.25;4.63;;;3.80;99.90;;;;;;5106024;28;20138;-54
2021/01/26 10:23:09;;;;;;;6.10;4.25;;;3.80;99.90;;;;;;5105171;28;20035;-50
2021/01/26 10:25:35;;;;;;;;;;;3.80;99.90;;;;;;5106247;28;20497;-51
2021/01/26 10:28:10;;;;;;;7.78;4.60;;;3.80;99.90;;;;;;5105474;27;20377;-51
2021/01/26 10:30:45;;;;;;;8.05;4.35;;;4.00;99.90;;;;;;5105879;28;20039;-53
2021/01/26 10:33:36;;;;;;;7.53;4.72;;;4.00;99.90;;;;;;5106306;27;20477;-53
2021/01/26 10:36:37;;;;;;;7.40;4.60;;;4.10;99.90;;;;;;5105644;28;20073;-53
2021/01/26 10:39:28;;;;;;;7.32;4.03;;;4.10;99.90;;;;;;5062328;28;20043;-52
2021/01/26 10:42:12;;;;;;;7.35;4.25;;;4.10;99.90;;;;;;5103004;28;20386;-51
2021/01/26 10:44:52;;;;;;;4.72;3.35;;;4.10;99.90;;;;;;5106086;28;20036;-54
2021/01/26 10:47:22;;;;;;;6.72;4.10;;;4.20;99.90;;;;;;5105197;28;20044;-51
2021/01/26 10:49:59;;;;;;;12.20;5.90;;;4.30;99.90;;;;;;5105005;28;20028;-53
2021/01/26 10:52:46;;;;;;;11.48;5.28;;;4.20;99.90;;;;;;5104592;28;20447;-53
2021/01/26 10:55:18;;;;;;;11.10;5.13;;;4.30;99.90;;;;;;5105514;28;20032;-54
2021/01/26 10:57:46;;;;;;;8.02;4.63;;;4.40;99.90;;;;;;5104821;28;20100;-52
2021/01/26 11:00:28;;;;;;;7.78;4.00;;;4.50;99.90;;;;;;5105836;28;20106;-53
2021/01/26 11:02:55;;;;;;;8.90;3.97;;;4.60;99.90;;;;;;5104657;28;20023;-51
2021/01/26 11:05:24;;;;;;;7.75;4.20;;;4.50;99.90;;;;;;5105355;28;20035;-52
2021/01/26 11:07:50;;;;;;;6.20;3.88;;;4.70;99.90;;;;;;5104953;28;20439;-51
2021/01/26 11:10:16;;;;;;;7.22;4.25;;;4.80;99.90;;;;;;5104859;28;20032;-52
2021/01/26 11:12:42;;;;;;;7.03;4.05;;;4.70;99.90;;;;;;5104743;28;20397;-53
2021/01/26 11:15:15;;;;;;;6.10;3.50;;;4.80;99.90;;;;;;5105685;28;20102;-53
2021/01/26 11:17:41;;;;;;;5.28;3.10;;;4.90;99.90;;;;;;5105406;28;20016;-53
2021/01/26 11:20:08;;;;;;;4.95;2.70;;;4.80;99.90;;;;;;5105680;28;20103;-51
2021/01/26 11:22:34;;;;;;;4.55;3.05;;;5.00;99.90;;;;;;5105053;28;20047;-52
2021/01/26 11:25:02;;;;;;;3.67;2.38;;;5.10;99.90;;;;;;5104593;28;20032;-51
2021/01/26 11:27:27;;;;;;;2.95;2.20;;;5.30;99.90;;;;;;5104878;28;20536;-52
2021/01/26 11:29:53;;;;;;;4.28;2.42;;;5.40;99.90;;;;;;5104619;28;20032;-52
2021/01/26 11:32:19;;;;;;;3.55;2.35;;;5.50;99.90;;;;;;5104587;28;20016;-53
2021/01/26 11:34:48;;;;;;;3.00;1.75;;;5.50;99.90;;;;;;5104773;28;20731;-53
2021/01/26 11:37:15;;;;;;;3.45;2.10;;;5.50;99.90;;;;;;5105200;28;20020;-53
2021/01/26 11:39:40;;;;;;;3.80;2.00;;;5.50;99.90;;;;;;5105217;28;20023;-50
2021/01/26 11:42:08;;;;;;;4.30;2.25;;;5.60;99.90;;;;;;5104549;28;20024;-51
2021/01/26 11:44:34;;;;;;;2.80;1.90;;;5.80;99.90;;;;;;5104748;28;20089;-53
2021/01/26 11:47:00;;;;;;;2.78;1.27;;;5.80;99.90;;;;;;5104401;28;20590;-53
2021/01/26 11:49:26;;;;;;;2.65;1.63;;;6.10;99.90;;;;;;5104800;28;20055;-53
2021/01/26 11:51:51;;;;;;;2.60;1.73;;;5.80;99.90;;;;;;5103691;28;20027;-53
2021/01/26 11:54:17;;;;;;;1.80;1.55;;;5.90;99.90;;;;;;5106763;28;20031;-51
2021/01/26 11:56:43;;;;;;;3.67;1.88;;;6.10;99.90;;;;;;5108216;28;20028;-52
2021/01/26 11:59:09;;;;;;;3.13;1.50;;;6.00;99.90;;;;;;5109129;28;20047;-52
2021/01/26 12:01:35;;;;;;;2.47;1.50;;;5.80;99.90;;;;;;5108460;28;20027;-52
2021/01/26 12:04:00;;;;;;;2.50;1.85;;;6.20;99.90;;;;;;5108357;28;20059;-53
2021/01/26 12:06:26;;;;;;;2.00;1.58;;;6.30;99.90;;;;;;5108530;28;20035;-54
2021/01/26 12:08:51;;;;;;;3.60;2.00;;;6.30;99.90;;;;;;5108462;28;20102;-53
2021/01/26 12:11:17;;;;;;;2.38;1.73;;;6.60;99.90;;;;;;5107985;28;20058;-53
2021/01/26 12:13:43;;;;;;;2.70;1.60;;;6.90;99.90;;;;;;5108065;28;20031;-52
2021/01/26 12:16:09;;;;;;;3.78;1.70;;;7.10;99.90;;;;;;5109147;28;20063;-53
2021/01/26 12:18:35;;;;;;;2.80;1.77;;;7.10;99.90;;;;;;5108350;28;20019;-52
2021/01/26 12:21:02;;;;;;;2.75;1.90;;;6.70;99.90;;;;;;5107800;28;20091;-50
2021/01/26 12:23:27;;;;;;;2.90;1.88;;;6.60;99.90;;;;;;5108208;28;20250;-53
2021/01/26 12:25:57;;;;;;;3.45;2.33;;;7.00;99.90;;;;;;5107485;28;20031;-53
2021/01/26 12:28:24;;;;;;;2.85;1.92;;;7.00;99.90;;;;;;5107916;28;20542;-53
2021/01/26 12:30:50;;;;;;;2.38;1.75;;;7.20;99.90;;;;;;5107602;28;20020;-53
2021/01/26 12:33:16;;;;;;;2.70;1.80;;;7.20;99.90;;;;;;5107892;27;20060;-52
2021/01/26 12:35:41;;;;;;;4.18;2.13;;;6.90;99.90;;;;;;5108163;28;20039;-53
2021/01/26 12:38:09;;;;;;;2.72;1.85;;;7.10;99.90;;;;;;5108448;28;20024;-52
2021/01/26 12:40:37;;;;;;;3.40;2.10;;;7.00;99.90;;;;;;5106098;28;20572;-53
2021/01/26 12:43:04;;;;;;;4.47;2.78;;;6.90;99.90;;;;;;5107544;28;20024;-53
2021/01/26 12:45:30;;;;;;;3.20;2.08;;;6.80;99.90;;;;;;5107523;28;20146;-50
2021/01/26 12:47:56;;;;;;;3.60;2.20;;;7.00;99.90;;;;;;5107376;28;20028;-53
2021/01/26 12:50:25;;;;;;;3.30;2.08;;;7.30;99.90;;;;;;5107416;28;20035;-53
2021/01/26 12:52:52;;;;;;;7.72;2.10;;;7.10;99.90;;;;;;5106418;28;20034;-53
2021/01/26 12:55:18;;;;;;;7.53;2.83;;;7.10;99.90;;;;;;5102677;28;20611;-53
2021/01/26 12:57:44;;;;;;;23.30;3.20;;;7.10;99.90;;;;;;5087037;28;20028;-54
2021/01/26 13:00:12;;;;;;;20.55;4.70;;;7.30;99.90;;;;;;5088211;28;20552;-53
2021/01/26 13:02:39;;;;;;;11.63;3.00;;;7.30;99.90;;;;;;5087801;28;20038;-53
2021/01/26 13:05:06;;;;;;;3.22;1.90;;;7.30;99.90;;;;;;5086229;28;20032;-52
2021/01/26 13:07:32;;;;;;;2.88;1.70;;;7.40;99.20;;;;;;5086770;28;20530;-51
2021/01/26 13:09:57;;;;;;;3.90;1.60;;;7.30;98.60;;;;;;5087489;28;20408;-52
2021/01/26 13:12:23;;;;;;;3.55;1.40;;;7.50;99.20;;;;;;5097697;28;20035;-53
2021/01/26 13:14:49;;;;;;;2.60;1.40;;;7.50;99.60;;;;;;5106857;28;20501;-53
2021/01/26 13:17:14;;;;;;;1.48;1.20;;;7.30;97.90;;;;;;5107186;28;20028;-52
2021/01/26 13:19:40;;;;;;;1.80;1.20;;;7.30;99.80;;;;;;5104768;28;20211;-53
2021/01/26 13:22:07;;;;;;;1.27;1.02;;;7.30;98.90;;;;;;5086717;28;20044;-53
2021/01/26 13:24:33;;;;;;;2.05;1.30;;;7.30;98.80;;;;;;5091533;28;20046;-53
2021/01/26 13:27:00;;;;;;;1.85;1.05;;;7.30;98.60;;;;;;5092644;28;20020;-53